Time;durP1;ratioP1;P1;durP2;ratioP2;P2;SDS_P1;SDS_P2;PMS_P1;PMS_P2;Temp;Humidity;BMP_temperature;BMP_pressure;BME280_temperature;BME280_humidity;BME280_pressure;Samples;Min_cycle;Max_cycle;Signal;HPM_P1;HPM_P2
2022/05/12 00:00:16;;;;;;;7.53;5.22;;;;;;;17.59;100.00;100485.47;5073428;28;20194;-70
2022/05/12 00:02:43;;;;;;;5.63;4.85;;;;;;;17.39;100.00;100468.97;5047053;28;20207;-70
2022/05/12 00:05:10;;;;;;;5.40;4.60;;;;;;;17.43;100.00;100477.69;5072245;28;20227;-70
2022/05/12 00:07:37;;;;;;;9.18;4.00;;;;;;;17.45;100.00;100478.53;5073518;28;20203;-70
2022/05/12 00:10:06;;;;;;;4.32;3.55;;;;;;;17.71;100.00;100485.38;5074366;28;20271;-70
2022/05/12 00:12:34;;;;;;;5.47;3.88;;;;;;;17.79;100.00;100486.22;5073887;28;20260;-71
2022/05/12 00:15:01;;;;;;;5.63;4.25;;;;;;;17.72;100.00;100483.63;5074085;28;20197;-70
2022/05/12 00:17:28;;;;;;;4.65;4.07;;;;;;;17.79;100.00;100480.09;5073826;28;20245;-70
2022/05/12 00:19:55;;;;;;;7.38;4.88;;;;;;;17.51;100.00;100489.88;5073081;28;20207;-70
2022/05/12 00:22:21;;;;;;;7.35;4.88;;;;;;;17.43;100.00;100470.69;5072089;28;20277;-70
2022/05/12 00:24:48;;;;;;;7.63;4.38;;;;;;;17.45;100.00;100479.41;5072169;28;20222;-70
2022/05/12 00:27:15;;;;;;;8.00;5.20;;;;;;;17.31;100.00;100458.53;5072782;28;20207;-70
2022/05/12 00:29:43;;;;;;;8.65;4.82;;;;;;;17.39;100.00;100481.22;5073946;28;20195;-70
2022/05/12 00:32:10;;;;;;;5.35;4.85;;;;;;;17.35;100.00;100478.59;5073244;28;20207;-70
2022/05/12 00:34:37;;;;;;;5.65;4.65;;;;;;;17.08;100.00;100460.44;5073155;28;20198;-70
2022/05/12 00:37:04;;;;;;;6.43;4.45;;;;;;;17.03;100.00;100449.09;5073082;28;20693;-70
2022/05/12 00:39:31;;;;;;;7.75;4.50;;;;;;;17.20;100.00;100477.81;5073480;28;20202;-70
2022/05/12 00:41:57;;;;;;;5.82;4.55;;;;;;;17.03;100.00;100462.19;5072915;28;20237;-71
2022/05/12 00:44:24;;;;;;;3.55;2.95;;;;;;;17.38;100.00;100467.22;5072537;28;20223;-70
2022/05/12 00:46:53;;;;;;;2.90;2.53;;;;;;;17.91;94.63;100485.22;5053414;28;21248;-70
2022/05/12 00:49:24;;;;;;;4.03;2.72;;;;;;;18.21;88.56;100492.81;5072922;28;20206;-70
2022/05/12 00:51:56;;;;;;;3.10;2.85;;;;;;;18.40;85.34;100485.66;5072986;28;20206;-70
2022/05/12 00:54:27;;;;;;;12.57;3.30;;;;;;;18.49;93.49;100489.91;5072543;28;20211;-70
2022/05/12 00:56:54;;;;;;;6.50;3.90;;;;;;;18.37;100.00;100474.31;5072681;28;20564;-70
2022/05/12 00:59:25;;;;;;;9.02;4.93;;;;;;;17.95;100.00;100488.69;5072704;28;20203;-70
2022/05/12 01:01:53;;;;;;;5.20;4.70;;;;;;;17.79;100.00;100496.69;5072898;28;20681;-70
2022/05/12 01:04:22;;;;;;;7.57;5.20;;;;;;;17.58;100.00;100468.00;5073124;28;20203;-70
2022/05/12 01:06:49;;;;;;;5.45;4.95;;;;;;;17.59;100.00;100497.69;5072068;28;20697;-71
2022/05/12 01:09:16;;;;;;;7.32;5.07;;;;;;;17.53;100.00;100497.72;5072783;28;20203;-71
2022/05/12 01:11:44;;;;;;;6.53;5.40;;;;;;;17.32;100.00;100468.16;5072972;28;20618;-71
2022/05/12 01:14:11;;;;;;;9.85;5.68;;;;;;;17.28;100.00;100503.13;5072753;28;20289;-70
2022/05/12 01:16:45;;;;;;;8.50;5.72;;;;;;;17.18;100.00;100497.94;5072328;28;20203;-70
2022/05/12 01:19:16;;;;;;;6.38;5.75;;;;;;;16.78;100.00;100497.22;5034053;28;20593;-70
2022/05/12 01:21:43;;;;;;;13.32;6.93;;;;;;;16.86;100.00;100498.09;5068835;28;20202;-70
2022/05/12 01:24:12;;;;;;;6.55;6.00;;;;;;;16.83;100.00;100492.84;5072610;28;20203;-70
2022/05/12 01:26:39;;;;;;;7.53;6.07;;;;;;;16.78;100.00;100481.50;5071744;28;20227;-70
2022/05/12 01:29:07;;;;;;;9.52;6.70;;;;;;;16.72;100.00;100499.88;5058496;28;20608;-70
2022/05/12 01:31:35;;;;;;;9.27;5.65;;;;;;;16.74;100.00;100491.13;5072382;28;20190;-70
2022/05/12 01:34:04;;;;;;;5.82;5.30;;;;;;;16.67;100.00;100486.78;5071661;28;20211;-70
2022/05/12 01:36:31;;;;;;;8.60;5.75;;;;;;;16.71;100.00;100505.97;5072294;28;20260;-70
2022/05/12 01:38:58;;;;;;;7.50;5.75;;;;;;;15.88;100.00;100381.41;5072269;28;20211;-70
2022/05/12 01:41:26;;;;;;;8.00;5.40;;;;;;;16.46;100.00;100501.66;5071952;28;20740;-70
2022/05/12 01:43:53;;;;;;;10.35;5.78;;;;;;;16.45;100.00;100516.47;5072060;28;20237;-70
2022/05/12 01:46:20;;;;;;;8.85;6.32;;;;;;;16.49;100.00;100530.44;5071563;28;20695;-70
2022/05/12 01:48:47;;;;;;;10.75;5.35;;;;;;;16.19;100.00;100532.25;5071779;28;20187;-70
2022/05/12 01:51:13;;;;;;;14.00;6.50;;;;;;;16.31;100.00;100531.34;5071723;28;20546;-70
2022/05/12 01:53:40;;;;;;;10.25;6.88;;;;;;;16.24;100.00;100533.09;5071810;28;20203;-70
2022/05/12 01:56:09;;;;;;;6.88;6.20;;;;;;;16.32;100.00;100530.47;5071695;28;20202;-70
2022/05/12 01:58:38;;;;;;;10.25;6.13;;;;;;;16.31;100.00;100532.22;5071851;28;20195;-70
2022/05/12 02:01:05;;;;;;;8.35;6.07;;;;;;;16.27;100.00;100535.69;5071825;28;20221;-70
2022/05/12 02:03:32;;;;;;;7.88;5.88;;;;;;;16.29;100.00;100546.19;5071500;28;20278;-70
2022/05/12 02:06:01;;;;;;;9.38;6.18;;;;;;;16.17;100.00;100522.63;5071317;28;20231;-70
2022/05/12 02:08:27;;;;;;;9.40;6.70;;;;;;;15.96;100.00;100518.28;5071437;28;20202;-70
2022/05/12 02:10:54;;;;;;;12.30;6.70;;;;;;;16.07;100.00;100549.66;5071560;28;20260;-70
2022/05/12 02:13:25;;;;;;;6.45;5.85;;;;;;;16.06;100.00;100551.41;5070739;28;20199;-70
2022/05/12 02:15:54;;;;;;;10.60;5.85;;;;;;;15.98;100.00;100552.28;5071657;28;20214;-70
2022/05/12 02:18:22;;;;;;;7.25;5.93;;;;;;;15.84;100.00;100528.72;5071079;28;20667;-70
2022/05/12 02:20:50;;;;;;;9.30;6.65;;;;;;;15.78;100.00;100532.22;5071507;28;20234;-70
2022/05/12 02:23:17;;;;;;;10.13;6.80;;;;;;;15.82;100.00;100544.44;5071184;28;20875;-70
2022/05/12 02:25:44;;;;;;;9.48;7.10;;;;;;;15.69;100.00;100531.34;5071366;28;20222;-70
2022/05/12 02:28:12;;;;;;;11.13;6.57;;;;;;;15.81;100.00;100541.78;5071372;28;20195;-70
2022/05/12 02:30:39;;;;;;;8.98;7.15;;;;;;;15.73;100.00;100547.00;5071295;28;20651;-70
2022/05/12 02:33:08;;;;;;;10.25;7.32;;;;;;;15.79;100.00;100544.44;5070304;28;20209;-70
2022/05/12 02:35:35;;;;;;;13.48;7.22;;;;;;;15.75;100.00;100545.28;5071101;28;20195;-70
2022/05/12 02:38:02;;;;;;;10.52;7.10;;;;;;;15.71;100.00;100540.03;5071033;28;20198;-70
2022/05/12 02:40:29;;;;;;;10.35;6.80;;;;;;;15.67;100.00;100538.28;5071236;28;20199;-70
2022/05/12 02:42:57;;;;;;;10.95;7.57;;;;;;;15.54;100.00;100505.16;5070450;28;20233;-70
2022/05/12 02:45:24;;;;;;;11.52;7.32;;;;;;;15.69;100.00;100533.94;5071072;28;20288;-70
2022/05/12 02:47:52;;;;;;;7.63;6.63;;;;;;;15.57;100.00;100515.63;5070781;28;20202;-70
2022/05/12 02:50:21;;;;;;;15.48;7.63;;;;;;;15.34;100.00;100464.16;5070141;28;20248;-70
2022/05/12 02:52:48;;;;;;;13.70;7.07;;;;;;;15.69;100.00;100542.69;5071167;28;20187;-74
2022/05/12 02:55:15;;;;;;;9.25;6.43;;;;;;;15.35;100.00;100473.75;5070262;28;20203;-71
2022/05/12 02:57:43;;;;;;;8.85;6.80;;;;;;;15.71;100.00;100538.31;5070154;28;20190;-71
2022/05/12 03:00:16;;;;;;;7.90;7.10;;;;;;;15.68;100.00;100516.50;5071093;28;20207;-71
2022/05/12 03:02:43;;;;;;;9.38;6.82;;;;;;;15.71;100.00;100526.97;5054699;28;20199;-71
2022/05/12 03:05:11;;;;;;;9.82;6.72;;;;;;;15.81;100.00;100540.06;5070816;28;20309;-71
2022/05/12 03:07:39;;;;;;;13.35;6.40;;;;;;;15.90;100.00;100539.22;5070529;28;20735;-71
2022/05/12 03:10:07;;;;;;;8.43;6.50;;;;;;;15.85;100.00;100544.41;5070643;28;20557;-71
2022/05/12 03:12:34;;;;;;;18.05;8.10;;;;;;;15.79;100.00;100528.75;5070111;28;20190;-71
2022/05/12 03:15:01;;;;;;;15.05;6.40;;;;;;;15.91;100.00;100533.09;5069855;28;20195;-71
2022/05/12 03:17:28;;;;;;;10.07;6.38;;;;;;;15.87;100.00;100531.38;5070425;28;20222;-71
2022/05/12 03:19:55;;;;;;;13.00;6.18;;;;;;;16.02;100.00;100554.00;5070942;28;20194;-71
2022/05/12 03:22:21;;;;;;;11.20;6.35;;;;;;;15.93;100.00;100520.03;5070607;28;20683;-71
2022/05/12 03:24:49;;;;;;;10.43;6.40;;;;;;;16.22;100.00;100555.78;5070239;28;20195;-71
2022/05/12 03:27:17;;;;;;;13.13;6.05;;;;;;;16.36;100.00;100554.03;5070494;28;20231;-71
2022/05/12 03:29:43;;;;;;;11.57;6.30;;;;;;;16.57;100.00;100557.50;5070728;28;20198;-71
2022/05/12 03:32:12;;;;;;;13.57;5.57;;;;;;;16.83;100.00;100550.47;5070306;28;20202;-71
2022/05/12 03:34:40;;;;;;;12.45;5.85;;;;;;;17.29;100.00;100549.44;5069364;28;20282;-71
2022/05/12 03:37:08;;;;;;;13.88;6.22;;;;;;;17.94;100.00;100553.44;5034237;28;20203;-71
2022/05/12 03:39:36;;;;;;;9.45;5.68;;;;;;;18.57;100.00;100546.78;5069008;28;20230;-72
2022/05/12 03:42:06;;;;;;;34.20;6.38;;;;;;;19.50;100.00;100570.25;5067167;28;20307;-71
2022/05/12 03:44:47;;;;;;;13.38;5.82;;;;;;;20.09;97.36;100571.09;5069555;28;20237;-71
2022/05/12 03:47:14;;;;;;;12.10;5.70;;;;;;;20.73;88.76;100566.50;5069205;28;20275;-71
2022/05/12 03:49:42;;;;;;;12.27;4.45;;;;;;;20.83;83.56;100459.13;5070161;28;20712;-71
2022/05/12 03:52:09;;;;;;;14.93;5.55;;;;;;;21.90;79.57;100571.13;5069678;28;20217;-72
2022/05/12 03:54:36;;;;;;;10.27;5.15;;;;;;;22.30;78.06;100566.59;5069508;28;20685;-72
2022/05/12 03:57:06;;;;;;;13.50;5.50;;;;;;;22.96;73.71;100585.16;5066941;28;20209;-72
2022/05/12 03:59:34;;;;;;;16.38;5.15;;;;;;;23.50;70.63;100592.47;5067908;28;20675;-72
2022/05/12 04:02:01;;;;;;;14.05;6.15;;;;;;;23.85;66.54;100568.41;5067882;28;20195;-73
2022/05/12 04:04:28;;;;;;;14.30;6.10;;;;;;;24.36;64.48;100572.97;5069131;28;20191;-72
2022/05/12 04:06:55;;;;;;;12.50;5.82;;;;;;;24.52;67.25;100613.94;5069701;28;20226;-70
2022/05/12 04:09:21;;;;;;;12.50;5.50;;;;;;;24.56;67.04;100595.25;5038842;28;20209;-71
2022/05/12 04:11:48;;;;;;;10.68;5.70;;;;;;;24.45;65.94;100599.16;5073946;28;20667;-72
2022/05/12 04:14:16;;;;;;;12.77;5.40;;;;;;;24.48;64.70;100597.28;5073983;28;20199;-76
2022/05/12 04:16:44;;;;;;;24.75;10.40;;;;;;;24.56;63.53;100600.53;5072983;28;20199;-77
2022/05/12 04:19:12;;;;;;;19.48;7.88;;;;;;;24.54;63.31;100548.50;5059875;28;20294;-76
2022/05/12 04:21:39;;;;;;;11.50;7.72;;;;;;;25.26;63.84;100597.19;5072104;28;20206;-74
2022/05/12 04:24:06;;;;;;;12.75;5.85;;;;;;;25.45;61.67;100614.19;5073914;28;20206;-73
2022/05/12 04:26:34;;;;;;;12.10;5.82;;;;;;;25.64;60.96;100596.66;5073183;28;20219;-74
2022/05/12 04:29:01;;;;;;;6.65;4.63;;;;;;;26.09;59.60;100613.44;5073348;28;20275;-75
2022/05/12 04:31:29;;;;;;;7.10;5.43;;;;;;;25.96;58.64;100552.88;5061255;28;20620;-74
2022/05/12 04:36:41;;;;;;;15.27;5.60;;;;;;;26.35;55.29;100567.22;5073216;28;20226;-74
2022/05/12 04:39:08;;;;;;;9.98;5.80;;;;;;;26.99;53.71;100615.91;5054626;28;21199;-72
2022/05/12 04:41:36;;;;;;;15.80;5.72;;;;;;;27.24;53.40;100628.13;5072679;28;20588;-72
2022/05/12 04:44:05;;;;;;;9.90;5.35;;;;;;;27.22;52.59;100592.72;5073013;28;20202;-71
2022/05/12 04:46:35;;;;;;;11.38;5.72;;;;;;;27.54;50.96;100638.25;5072664;28;20283;-72
2022/05/12 04:49:03;;;;;;;8.82;5.45;;;;;;;27.60;49.56;100623.81;5072810;28;20726;-72
2022/05/12 04:51:31;;;;;;;11.35;5.35;;;;;;;27.74;51.15;100645.34;5072991;28;20210;-74
2022/05/12 04:53:58;;;;;;;12.75;5.32;;;;;;;27.90;49.72;100625.03;5038031;28;20292;-72
2022/05/12 04:56:25;;;;;;;9.88;5.35;;;;;;;28.25;49.30;100635.84;5073029;28;20279;-72
2022/05/12 04:58:52;;;;;;;7.95;5.35;;;;;;;28.22;49.25;100663.50;5072947;28;20612;-72
2022/05/12 05:01:19;;;;;;;9.00;5.35;;;;;;;27.93;49.19;100646.19;5067839;28;20206;-74
2022/05/12 05:03:47;;;;;;;7.82;5.78;;;;;;;28.14;48.59;100652.38;5068116;28;20267;-72
2022/05/12 05:06:14;;;;;;;7.65;6.88;;;;;;;28.16;48.45;100663.81;5062341;28;20210;-73
2022/05/12 05:08:41;;;;;;;11.77;6.47;;;;;;;28.41;48.35;100671.50;5055714;28;20203;-72
2022/05/12 05:11:08;;;;;;;18.55;6.90;;;;;;;28.71;47.49;100672.69;5054671;28;20621;-71
2022/05/12 05:13:35;;;;;;;8.75;6.38;;;;;;;28.51;47.78;100670.09;5069057;28;20198;-72
2022/05/12 05:16:02;;;;;;;16.50;6.80;;;;;;;28.14;46.85;100664.84;5070214;28;20203;-72
2022/05/12 05:18:29;;;;;;;14.25;6.75;;;;;;;28.01;47.89;100668.03;5051783;28;20199;-70
2022/05/12 05:20:57;;;;;;;15.82;6.93;;;;;;;27.92;48.79;100665.81;5072606;28;20201;-69
2022/05/12 05:23:24;;;;;;;20.08;11.60;;;;;;;27.80;48.34;100671.72;5072156;28;20203;-69
2022/05/12 05:25:52;;;;;;;9.88;6.80;;;;;;;27.90;48.42;100638.34;5072443;28;20195;-70
2022/05/12 05:28:19;;;;;;;14.07;7.80;;;;;;;27.97;48.36;100654.91;5072102;28;20205;-71
2022/05/12 05:30:46;;;;;;;11.48;6.65;;;;;;;27.74;48.30;100679.13;5072451;28;20202;-71
2022/05/12 05:33:13;;;;;;;9.05;5.93;;;;;;;27.43;48.33;100672.47;5072814;28;20222;-70
2022/05/12 05:35:39;;;;;;;10.07;6.20;;;;;;;26.96;49.41;100661.28;5072241;28;20207;-70
2022/05/12 05:38:07;;;;;;;18.38;6.05;;;;;;;26.56;51.13;100663.88;5063655;28;20203;-71
2022/05/12 05:40:34;;;;;;;22.73;6.80;;;;;;;26.43;51.20;100681.25;5072079;28;20202;-71
2022/05/12 05:43:02;;;;;;;23.42;6.85;;;;;;;26.43;51.45;100675.94;5060794;28;20238;-70
2022/05/12 05:45:30;;;;;;;31.33;6.72;;;;;;;26.72;52.32;100682.72;5071973;28;20187;-70
2022/05/12 05:47:58;;;;;;;32.90;6.22;;;;;;;26.75;51.55;100682.59;5068479;28;20238;-70
2022/05/12 05:50:28;;;;;;;24.10;6.30;;;;;;;26.89;51.04;100686.44;5051845;28;20231;-69
2022/05/12 05:55:42;;;;;;;22.10;6.32;;;;;;;26.18;52.11;100683.16;5052162;28;20345;-69
2022/05/12 05:58:09;;;;;;;19.23;6.05;;;;;;;25.81;52.98;100655.31;5052268;28;20195;-69
2022/05/12 06:00:37;;;;;;;17.63;5.10;;;;;;;25.73;52.45;100677.78;5052302;28;20191;-69
2022/05/12 06:03:05;;;;;;;27.00;5.35;;;;;;;25.84;51.62;100668.50;5051884;28;20769;-71
2022/05/12 06:05:32;;;;;;;8.80;4.55;;;;;;;25.12;53.02;100683.50;5052132;28;20230;-71
2022/05/12 06:07:58;;;;;;;15.20;5.22;;;;;;;25.22;54.37;100678.72;5051989;28;20224;-71
2022/05/12 06:10:26;;;;;;;20.70;5.50;;;;;;;25.27;54.38;100684.75;5052237;28;20227;-71
2022/05/12 06:12:54;;;;;;;9.82;5.13;;;;;;;24.84;58.15;100684.50;5051946;28;20231;-71
2022/05/12 06:15:21;;;;;;;6.22;3.90;;;;;;;24.15;55.01;100684.06;5057506;28;20667;-71
2022/05/12 06:17:48;;;;;;;4.70;3.38;;;;;;;23.56;54.16;100677.88;5060197;28;20630;-71
2022/05/12 06:20:16;;;;;;;10.82;3.50;;;;;;;23.26;54.06;100683.13;5068616;28;20289;-71
2022/05/12 06:22:43;;;;;;;4.13;3.05;;;;;;;22.87;54.21;100682.38;5071478;28;20694;-74
2022/05/12 06:25:12;;;;;;;9.70;3.38;;;;;;;23.04;54.15;100673.13;5071735;28;20210;-73
2022/05/12 06:27:39;;;;;;;3.90;3.22;;;;;;;23.02;54.61;100679.34;5071743;28;20226;-74
2022/05/12 06:30:11;;;;;;;7.00;2.85;;;;;;;22.83;53.09;100680.75;5053141;28;20206;-74
2022/05/12 06:32:38;;;;;;;2.90;2.63;;;;;;;22.63;53.06;100666.22;5051003;28;20203;-74
2022/05/12 06:35:06;;;;;;;4.88;3.35;;;;;;;23.01;53.21;100683.75;5065471;28;20206;-74
2022/05/12 06:37:33;;;;;;;5.43;3.00;;;;;;;23.07;53.84;100693.34;5070986;28;20634;-74
2022/05/12 06:39:59;;;;;;;4.05;3.08;;;;;;;23.20;53.59;100677.09;5068326;28;20203;-75
2022/05/12 06:42:27;;;;;;;13.20;3.60;;;;;;;23.14;53.66;100685.19;5070805;28;20238;-75
2022/05/12 06:44:54;;;;;;;3.20;2.90;;;;;;;23.32;53.36;100688.25;5070843;28;20198;-74
2022/05/12 06:47:22;;;;;;;5.72;3.20;;;;;;;23.47;52.86;100671.97;5067825;28;20311;-74
2022/05/12 06:49:51;;;;;;;3.95;3.25;;;;;;;23.37;52.53;100683.66;5066834;28;20227;-75
2022/05/12 06:52:18;;;;;;;4.53;3.58;;;;;;;23.39;53.48;100679.22;5070103;28;20191;-75
2022/05/12 06:54:46;;;;;;;9.07;3.60;;;;;;;23.34;53.25;100659.94;5070522;28;20594;-75
2022/05/12 06:57:19;;;;;;;7.55;3.55;;;;;;;23.64;53.28;100675.00;5071183;28;20202;-75
2022/05/12 06:59:46;;;;;;;7.35;3.88;;;;;;;23.57;53.68;100666.38;5071031;28;20190;-74
2022/05/12 07:02:13;;;;;;;3.72;3.17;;;;;;;23.36;52.70;100663.44;5070920;28;20199;-74
2022/05/12 07:04:41;;;;;;;15.57;4.63;;;;;;;23.43;56.58;100671.19;5071104;28;20285;-74
2022/05/12 07:07:08;;;;;;;13.65;4.90;;;;;;;23.46;57.76;100660.50;5071062;28;20249;-74
2022/05/12 07:09:37;;;;;;;3.72;3.42;;;;;;;23.32;55.04;100664.44;5071006;28;20206;-74
2022/05/12 07:12:04;;;;;;;4.35;3.25;;;;;;;23.52;54.95;100660.34;5070887;28;20203;-74
2022/05/12 07:14:32;;;;;;;3.55;3.25;;;;;;;23.40;55.14;100644.75;5070217;28;20209;-74
2022/05/12 07:16:59;;;;;;;4.30;3.40;;;;;;;23.58;54.21;100675.19;5069907;28;20207;-75
2022/05/12 07:19:26;;;;;;;4.47;3.22;;;;;;;23.75;54.91;100680.00;5070807;28;20203;-74
2022/05/12 07:27:38;;;;;;;6.72;3.20;;;;;;;23.94;55.19;100666.13;5028272;28;20230;-74
2022/05/12 07:30:07;;;;;;;5.38;3.38;;;;;;;23.81;55.08;100671.84;5027917;28;20200;-74
2022/05/12 07:32:37;;;;;;;4.57;3.50;;;;;;;23.71;55.62;100676.56;5027967;28;20212;-74
2022/05/12 07:35:05;;;;;;;8.23;3.58;;;;;;;23.66;56.35;100629.03;5027808;28;20208;-74
2022/05/12 07:37:34;;;;;;;13.38;3.70;;;;;;;24.11;56.12;100670.94;5027647;28;20204;-74
2022/05/12 07:40:01;;;;;;;7.55;3.80;;;;;;;23.98;55.51;100673.06;5027761;28;20200;-74
2022/05/12 07:42:29;;;;;;;3.95;3.65;;;;;;;24.05;54.46;100650.78;5029040;28;20227;-74
2022/05/12 07:44:56;;;;;;;8.70;3.65;;;;;;;23.95;55.70;100612.25;5031872;28;20196;-74
2022/05/12 07:47:23;;;;;;;10.90;4.35;;;;;;;24.34;56.80;100667.56;5031664;28;20620;-74
2022/05/12 07:49:50;;;;;;;17.05;3.83;;;;;;;24.52;56.04;100672.28;5031810;28;20200;-74
2022/05/12 07:52:16;;;;;;;3.70;3.30;;;;;;;24.46;54.76;100656.59;5031479;28;20195;-74
2022/05/12 07:54:44;;;;;;;3.85;3.03;;;;;;;24.74;54.66;100668.00;5031930;28;20231;-74
2022/05/12 07:57:12;;;;;;;4.22;3.38;;;;;;;24.78;53.96;100674.94;5031604;28;20200;-74
2022/05/12 07:59:39;;;;;;;16.23;4.22;;;;;;;24.58;55.69;100664.13;5071432;28;20278;-74
2022/05/12 08:02:06;;;;;;;14.30;3.88;;;;;;;24.71;55.39;100657.50;5073680;28;20191;-74
2022/05/12 08:04:34;;;;;;;3.85;2.85;;;;;;;24.55;54.26;100657.13;5073744;28;20256;-74
2022/05/12 08:07:01;;;;;;;5.05;3.10;;;;;;;24.69;54.54;100627.50;5073675;28;20233;-74
2022/05/12 08:09:28;;;;;;;5.38;2.78;;;;;;;24.90;53.98;100652.47;5073669;28;20203;-74
2022/05/12 08:11:56;;;;;;;9.45;3.60;;;;;;;25.10;55.01;100669.44;5073390;28;20195;-74
2022/05/12 08:14:23;;;;;;;2.85;2.53;;;;;;;24.98;52.28;100666.31;5073627;28;20214;-74
2022/05/12 08:16:50;;;;;;;6.85;3.80;;;;;;;24.73;53.74;100610.56;5073512;28;20208;-74
2022/05/12 08:19:17;;;;;;;14.38;3.97;;;;;;;25.26;55.05;100651.16;5073328;28;20206;-74
2022/05/12 08:21:43;;;;;;;6.20;4.82;;;;;;;24.82;54.47;100650.06;5054548;28;20199;-74
2022/05/12 08:24:10;;;;;;;11.35;3.25;;;;;;;24.91;54.48;100648.88;5073358;28;20203;-74
2022/05/12 08:26:37;;;;;;;6.40;3.45;;;;;;;25.00;54.63;100644.16;5073187;28;20190;-74
2022/05/12 08:29:06;;;;;;;9.25;3.00;;;;;;;25.39;54.84;100654.25;5073130;28;20238;-76
2022/05/12 08:31:32;;;;;;;5.45;2.83;;;;;;;25.50;54.72;100649.41;5073135;28;20252;-74
2022/05/12 08:34:00;;;;;;;3.75;3.05;;;;;;;25.67;54.46;100643.50;5037922;28;20203;-74
2022/05/12 08:36:28;;;;;;;5.70;3.10;;;;;;;25.69;53.27;100638.97;5073099;28;20237;-74
2022/05/12 08:38:56;;;;;;;5.22;3.47;;;;;;;25.41;53.30;100649.72;5073032;28;20203;-75
2022/05/12 08:41:32;;;;;;;4.32;3.53;;;;;;;25.39;55.57;100635.66;5073108;28;20199;-74
2022/05/12 08:44:02;;;;;;;9.45;3.55;;;;;;;25.49;54.19;100624.63;5072741;28;20611;-74
2022/05/12 08:46:39;;;;;;;11.57;3.42;;;;;;;25.75;53.06;100650.25;5059961;28;20210;-73
2022/05/12 08:49:18;;;;;;;9.88;3.42;;;;;;;25.72;53.35;100629.09;5052806;28;20659;-74
2022/05/12 08:51:49;;;;;;;4.68;3.60;;;;;;;25.71;53.57;100627.38;5053158;28;20265;-74
2022/05/12 08:54:21;;;;;;;15.68;4.57;;;;;;;25.43;53.50;100616.03;5051533;28;20207;-73
2022/05/12 08:57:01;;;;;;;4.07;3.70;;;;;;;25.80;54.05;100636.78;5052698;28;20207;-74
2022/05/12 08:59:28;;;;;;;9.15;3.60;;;;;;;25.93;53.88;100641.56;5052673;28;20202;-74
2022/05/12 09:02:09;;;;;;;12.80;3.38;;;;;;;25.80;52.57;100642.09;5052884;28;20196;-73
2022/05/12 09:05:01;;;;;;;10.02;3.38;;;;;;;25.93;51.96;100636.25;5052849;28;20202;-74
2022/05/12 09:07:33;;;;;;;12.40;3.20;;;;;;;25.90;52.00;100633.69;5052523;28;20649;-74
2022/05/12 09:10:10;;;;;;;3.38;3.05;;;;;;;26.18;51.54;100640.63;5052674;28;20192;-73
2022/05/12 09:12:45;;;;;;;12.27;2.90;;;;;;;26.27;51.55;100626.94;5052355;28;20325;-73
2022/05/12 09:15:17;;;;;;;6.50;3.35;;;;;;;26.12;51.20;100617.75;5052247;28;20571;-73
2022/05/12 09:17:50;;;;;;;6.85;3.00;;;;;;;26.26;50.55;100636.72;5052223;28;20200;-73
2022/05/12 09:20:18;;;;;;;3.55;2.22;;;;;;;26.24;44.77;100633.28;5052230;28;20234;-74
2022/05/12 09:22:45;;;;;;;8.25;3.78;;;;;;;26.33;48.85;100634.66;5052359;28;20306;-74
2022/05/12 09:25:28;;;;;;;3.85;3.42;;;;;;;26.49;51.23;100638.44;5052263;28;20211;-72
2022/05/12 09:27:58;;;;;;;5.80;3.05;;;;;;;26.49;51.22;100628.66;5052088;28;20231;-73
2022/05/12 09:30:33;;;;;;;8.55;3.22;;;;;;;26.54;49.03;100634.66;5052457;28;20290;-75
2022/05/12 09:33:02;;;;;;;3.03;2.70;;;;;;;26.51;47.86;100636.56;5052221;28;20703;-76
2022/05/12 09:35:31;;;;;;;7.28;2.88;;;;;;;26.28;48.87;100631.34;5050129;28;20585;-73
2022/05/12 09:37:58;;;;;;;3.75;2.47;;;;;;;25.93;48.35;100617.66;5049548;28;20236;-75
2022/05/12 09:40:35;;;;;;;4.28;2.80;;;;;;;26.00;47.65;100602.31;5051743;28;20291;-75
2022/05/12 09:43:17;;;;;;;3.15;2.95;;;;;;;25.99;48.32;100606.78;5051846;28;20784;-75
2022/05/12 09:45:45;;;;;;;2.90;2.70;;;;;;;26.11;47.86;100619.56;5051925;28;20585;-75
2022/05/12 09:48:26;;;;;;;5.32;2.97;;;;;;;26.40;47.42;100617.53;5049669;28;20226;-74
2022/05/12 09:50:53;;;;;;;12.23;3.10;;;;;;;26.83;47.29;100632.56;5051728;28;20207;-75
2022/05/12 09:53:26;;;;;;;8.98;2.63;;;;;;;26.78;46.06;100627.44;5051546;28;20686;-78
2022/05/12 09:56:06;;;;;;;2.60;2.40;;;;;;;26.30;45.90;100586.94;5051262;28;20192;-74
2022/05/12 09:58:37;;;;;;;3.28;2.90;;;;;;;26.23;47.17;100582.78;5051763;28;20276;-74
2022/05/12 10:01:16;;;;;;;2.70;2.20;;;;;;;26.39;46.26;100615.81;5051707;28;20207;-73
2022/05/12 10:09:17;;;;;;;4.43;2.60;;;;;;;26.24;45.76;100597.84;5051231;28;20261;-74
2022/05/12 10:11:50;;;;;;;4.38;2.67;;;;;;;26.14;45.61;100563.63;5051157;28;20226;-74
2022/05/12 10:14:33;;;;;;;3.88;2.78;;;;;;;26.62;45.31;100602.41;5051471;28;20203;-74
2022/05/12 10:17:03;;;;;;;3.15;2.85;;;;;;;26.50;45.21;100598.50;5051077;28;20235;-74
2022/05/12 10:19:33;;;;;;;5.38;2.22;;;;;;;26.57;45.43;100594.66;5051172;28;20199;-74
2022/05/12 10:22:10;;;;;;;3.83;2.53;;;;;;;26.46;44.89;100596.03;5051006;28;20732;-74
2022/05/12 10:24:50;;;;;;;4.30;2.97;;;;;;;26.43;44.58;100582.84;5051475;28;20199;-74
2022/05/12 10:27:23;;;;;;;7.05;3.08;;;;;;;26.38;44.41;100592.81;5050990;28;20695;-74
2022/05/12 10:29:59;;;;;;;2.72;2.53;;;;;;;26.08;45.16;100589.56;5050793;28;20626;-74
2022/05/12 10:32:41;;;;;;;10.27;3.10;;;;;;;26.09;45.18;100581.53;5050924;28;20214;-74
2022/05/12 10:35:14;;;;;;;18.35;3.55;;;;;;;26.36;45.45;100587.53;5050763;28;20207;-74
2022/05/12 10:37:53;;;;;;;4.75;2.47;;;;;;;26.61;44.31;100579.41;5050628;28;20230;-74
2022/05/12 10:40:27;;;;;;;16.30;3.63;;;;;;;26.70;43.47;100563.03;5050576;28;20581;-74
2022/05/12 10:43:17;;;;;;;9.60;3.05;;;;;;;26.90;43.75;100575.47;5050701;28;20235;-74
2022/05/12 10:45:53;;;;;;;7.97;3.40;;;;;;;27.10;43.94;100579.00;5050387;28;20699;-74
2022/05/12 10:48:36;;;;;;;5.47;2.33;;;;;;;27.14;41.39;100573.53;5050629;28;20218;-74
2022/05/12 10:51:22;;;;;;;4.38;2.90;;;;;;;26.90;42.25;100571.03;5050541;28;20195;-75
2022/05/12 10:54:01;;;;;;;5.70;3.03;;;;;;;26.86;43.63;100566.78;5050569;28;20203;-75
2022/05/12 10:56:36;;;;;;;7.03;3.00;;;;;;;27.06;42.02;100569.44;5050736;28;20203;-75
2022/05/12 10:59:39;;;;;;;4.28;2.50;;;;;;;27.32;42.38;100556.72;5015312;28;20205;-75
2022/05/12 11:02:14;;;;;;;9.32;2.78;;;;;;;27.54;41.74;100563.66;5027908;28;20262;-75
2022/05/12 11:04:45;;;;;;;6.60;2.65;;;;;;;27.65;41.33;100565.81;5028124;28;20199;-75
2022/05/12 11:07:21;;;;;;;4.90;2.80;;;;;;;27.34;40.62;100554.84;5027984;28;20215;-74
2022/05/12 11:09:51;;;;;;;5.45;3.25;;;;;;;27.43;40.98;100549.94;5027984;28;20208;-75
2022/05/12 11:12:26;;;;;;;5.60;2.88;;;;;;;27.52;40.96;100532.72;5028050;28;20286;-75
2022/05/12 11:14:57;;;;;;;2.50;2.30;;;;;;;27.94;40.38;100551.09;5027972;28;20211;-74
2022/05/12 11:17:33;;;;;;;6.60;2.67;;;;;;;27.98;41.13;100542.88;5027145;28;20638;-75
2022/05/12 11:20:17;;;;;;;2.58;2.38;;;;;;;28.02;40.64;100547.13;5027882;28;20679;-75
2022/05/12 11:22:51;;;;;;;4.05;2.25;;;;;;;27.79;40.31;100527.88;5028020;28;20200;-75
2022/05/12 11:25:23;;;;;;;8.07;2.35;;;;;;;27.85;39.58;100541.75;5027937;28;20210;-74
2022/05/12 11:29:41;;;;;;;3.13;2.40;;;;;;;27.81;38.95;100510.84;5027686;28;20231;-75
2022/05/12 11:30:50;;;;;;;15.68;2.95;;;;;;;28.17;38.87;100542.00;5027702;28;20614;-75
2022/05/12 11:33:26;;;;;;;2.22;2.00;;;;;;;27.99;37.95;100509.94;5027794;28;20261;-75
2022/05/12 11:35:55;;;;;;;3.83;2.30;;;;;;;28.04;38.29;100526.56;5027555;28;20196;-75
2022/05/12 11:39:01;;;;;;;2.50;2.30;;;;;;;28.04;39.53;100526.56;5034280;28;20289;-75
2022/05/12 11:41:44;;;;;;;3.10;2.55;;;;;;;27.96;40.50;100519.91;5049726;28;20249;-75
2022/05/12 11:44:26;;;;;;;14.35;3.38;;;;;;;27.63;40.32;100514.41;5050132;28;20238;-75
2022/05/12 11:47:11;;;;;;;5.82;2.40;;;;;;;27.53;40.23;100486.50;5049976;28;20199;-75